KBIS

Bismarck Municipal Airport

Bismarck, North Dakota, USA
KBIS 210520Z 2106/2206 12006KT P6SM SCT150 FM211800 17017G25KT P6SM FEW040 SCT250
Issued Valid From Valid To
Apr-21 @ 05:20 UTC
(4 hours ago)
Apr-21 @ 06:00 UTC
(3 hours ago)
Apr-22 @ 06:00 UTC
(in 21 hours)
Apr-21 @ 06:00 to Apr-21 @ 18:00
KBIS 210520Z 2106/2206 12006KT P6SM SCT150
Wind Visibility Clouds
120° at 6 knots Greater than 6 miles
  • Scattered at 15,000' AGL
From Apr-21 @ 18:00 to Apr-22 @ 06:00
FM211800 17017G25KT P6SM FEW040 SCT250
Wind Visibility Clouds
170° at 17 knots
 Gusting to 25 knots
Greater than 6 miles
  • Few at 4,000' AGL
  • Scattered at 25,000' AGL
KBIS 210520Z 2106/2206 12006KT P6SM SCT150 FM211800 17017G25KT P6SM FEW040 SCT250
Issued Apr-21 @ 05:20 UTC
(4 hours ago)
Valid From Apr-21 @ 06:00 UTC
(3 hours ago)
Valid To Apr-22 @ 06:00 UTC
(in 21 hours)
Apr-21 @ 06:00 - Apr-21 @ 18:00
Wind Visibility
120° at 6 knots Greater than 6 miles
Clouds
  • Scattered at 15,000' AGL
From Apr-21 @ 18:00 - Apr-22 @ 06:00
Wind Visibility
170° at 17 knots
 Gusting to 25 knots
Greater than 6 miles
Clouds
  • Few at 4,000' AGL
  • Scattered at 25,000' AGL